createdAt,value
2018-07-10T00:00:16.804Z,17.10
2018-07-10T00:08:44.943Z,17.10
2018-07-10T00:14:48.236Z,17.10
2018-07-10T00:20:51.832Z,17.00
2018-07-10T00:26:55.132Z,17.00
2018-07-10T00:32:58.783Z,17.00
2018-07-10T00:39:06.762Z,16.90
2018-07-10T00:45:10.162Z,16.80
2018-07-10T00:51:14.330Z,16.80
2018-07-10T00:57:17.863Z,16.70
2018-07-10T01:03:22.484Z,16.60
2018-07-10T01:09:26.154Z,16.50
2018-07-10T01:15:29.546Z,16.30
2018-07-10T01:21:32.929Z,16.30
2018-07-10T01:27:37.569Z,16.20
2018-07-10T01:33:41.088Z,16.30
2018-07-10T01:39:44.502Z,16.30
2018-07-10T01:45:48.452Z,16.40
2018-07-10T01:51:52.062Z,16.20
2018-07-10T01:57:56.919Z,16.20
2018-07-10T02:04:00.967Z,16.20
2018-07-10T02:10:04.570Z,16.00
2018-07-10T02:16:08.030Z,15.90
2018-07-10T02:22:11.538Z,15.80
2018-07-10T02:28:15.015Z,15.80
2018-07-10T02:34:18.877Z,15.80
2018-07-10T02:40:22.368Z,15.90
2018-07-10T02:46:27.193Z,16.00
2018-07-10T02:52:39.740Z,15.90
2018-07-10T02:58:43.435Z,15.90
2018-07-10T03:04:47.655Z,15.90
2018-07-10T03:10:51.216Z,15.80
2018-07-10T03:16:54.618Z,15.80
2018-07-10T03:22:58.365Z,15.90
2018-07-10T03:29:02.046Z,15.80
2018-07-10T03:35:06.246Z,15.60
2018-07-10T03:41:09.954Z,15.70
2018-07-10T03:47:17.053Z,15.80
2018-07-10T03:53:21.488Z,15.80
2018-07-10T03:59:25.064Z,15.70
2018-07-10T04:05:28.662Z,15.70
2018-07-10T04:11:32.939Z,15.80
2018-07-10T04:17:45.659Z,15.80
2018-07-10T04:24:08.895Z,15.80
2018-07-10T04:30:21.305Z,15.80
2018-07-10T04:36:24.973Z,15.80
2018-07-10T04:42:31.869Z,15.80
2018-07-10T04:48:40.987Z,15.90
2018-07-10T04:55:01.174Z,16.00
2018-07-10T05:01:04.624Z,16.00
2018-07-10T05:07:09.935Z,16.10
2018-07-10T05:13:13.409Z,16.20
2018-07-10T05:19:16.942Z,16.10
2018-07-10T05:25:20.622Z,16.10
2018-07-10T05:31:24.442Z,16.10
2018-07-10T05:37:34.167Z,16.20
2018-07-10T05:43:46.498Z,16.50
2018-07-10T05:49:49.990Z,16.60
2018-07-10T05:55:53.902Z,16.70
2018-07-10T06:01:57.618Z,16.80
2018-07-10T06:08:01.430Z,16.80
2018-07-10T06:14:04.846Z,16.80
2018-07-10T06:20:08.480Z,16.80
2018-07-10T06:26:13.381Z,16.90
2018-07-10T06:32:21.230Z,17.00
2018-07-10T06:38:24.715Z,17.10
2018-07-10T06:44:28.344Z,17.00
2018-07-10T06:50:33.987Z,17.00
2018-07-10T06:56:37.892Z,17.10
2018-07-10T07:02:41.461Z,17.10
2018-07-10T07:08:45.086Z,17.20
2018-07-10T07:14:49.019Z,17.10
2018-07-10T07:20:52.673Z,17.00
2018-07-10T07:26:56.296Z,17.00
2018-07-10T07:33:00.412Z,17.10
2018-07-10T07:39:04.953Z,17.30
2018-07-10T07:45:08.877Z,17.30
2018-07-10T07:51:12.499Z,17.20
2018-07-10T07:57:16.858Z,17.20
2018-07-10T08:03:21.051Z,17.30
2018-07-10T08:09:24.844Z,17.20
2018-07-10T08:15:28.285Z,17.30
2018-07-10T08:21:32.403Z,17.30
2018-07-10T08:27:37.518Z,17.40
2018-07-10T08:33:41.258Z,17.40
2018-07-10T08:39:45.294Z,17.20
2018-07-10T08:45:49.582Z,17.30
2018-07-10T08:51:53.890Z,17.20
2018-07-10T08:57:57.709Z,17.00
2018-07-10T09:04:01.524Z,16.90
2018-07-10T09:10:05.031Z,17.00
2018-07-10T09:16:08.788Z,17.00
2018-07-10T09:22:13.100Z,17.10
2018-07-10T09:28:17.114Z,17.10
2018-07-10T09:34:20.832Z,17.10
2018-07-10T09:40:24.631Z,16.90
2018-07-10T09:46:29.950Z,17.00
2018-07-10T09:52:33.588Z,17.20
2018-07-10T09:58:37.551Z,17.20
2018-07-10T10:04:41.244Z,17.20
2018-07-10T10:10:45.073Z,17.30
2018-07-10T10:16:48.608Z,17.50
2018-07-10T10:22:52.364Z,17.60
2018-07-10T10:28:56.228Z,17.60
2018-07-10T10:35:00.262Z,17.80
2018-07-10T10:41:03.898Z,17.80
2018-07-10T10:47:08.008Z,17.80
2018-07-10T10:53:11.798Z,17.90
2018-07-10T10:59:15.497Z,17.80
2018-07-10T11:05:19.482Z,17.70
2018-07-10T11:11:23.073Z,17.70
2018-07-10T11:17:31.116Z,17.70
2018-07-10T11:23:53.407Z,18.00
2018-07-10T11:29:57.590Z,18.10
2018-07-10T11:36:01.461Z,18.10
2018-07-10T11:42:05.443Z,18.00
2018-07-10T11:48:09.690Z,17.90
2018-07-10T11:54:14.033Z,17.80
2018-07-10T12:00:18.812Z,17.80
2018-07-10T12:06:22.591Z,17.80
2018-07-10T12:12:26.234Z,17.80
2018-07-10T12:18:29.803Z,17.80
2018-07-10T12:24:33.408Z,17.60
2018-07-10T12:30:36.968Z,17.90
2018-07-10T12:36:40.540Z,18.30
2018-07-10T12:42:44.068Z,18.40
2018-07-10T12:48:47.782Z,18.60
2018-07-10T12:54:51.427Z,18.90
2018-07-10T13:00:55.673Z,19.10
2018-07-10T13:06:59.398Z,19.10
2018-07-10T13:13:03.346Z,19.30
2018-07-10T13:19:06.928Z,19.40
2018-07-10T13:25:10.577Z,19.80
2018-07-10T13:31:13.905Z,20.30
2018-07-10T13:37:21.934Z,20.50
2018-07-10T13:43:25.595Z,20.60
2018-07-10T13:49:29.374Z,20.70
2018-07-10T13:55:33.127Z,20.80
2018-07-10T14:01:39.582Z,21.00
2018-07-10T14:07:43.106Z,20.90
2018-07-10T14:13:46.790Z,20.90
2018-07-10T14:19:51.346Z,21.00
2018-07-10T14:25:55.130Z,21.00
2018-07-10T14:31:58.884Z,21.10
2018-07-10T14:38:05.761Z,21.00
2018-07-10T14:44:11.055Z,21.10
2018-07-10T14:50:14.703Z,21.10
2018-07-10T14:56:18.692Z,21.00
2018-07-10T15:02:22.259Z,20.90
2018-07-10T15:08:26.156Z,21.00
2018-07-10T15:14:29.935Z,21.00
2018-07-10T15:20:33.574Z,21.10
2018-07-10T15:26:38.178Z,21.10
2018-07-10T15:32:41.820Z,20.90
2018-07-10T15:38:46.457Z,20.90
2018-07-10T15:44:49.950Z,21.30
2018-07-10T15:50:53.431Z,21.70
2018-07-10T15:56:57.342Z,22.10
2018-07-10T16:03:01.260Z,22.60
2018-07-10T16:09:22.324Z,23.00
2018-07-10T16:15:26.295Z,23.30
2018-07-10T16:22:00.925Z,23.50
2018-07-10T16:28:39.154Z,23.50
2018-07-10T16:34:46.374Z,23.00
2018-07-10T16:40:50.367Z,22.10
2018-07-10T16:47:08.706Z,21.70
2018-07-10T16:53:14.623Z,21.50
2018-07-10T16:59:18.199Z,21.40
2018-07-10T17:05:22.582Z,21.20
2018-07-10T17:11:26.206Z,21.30
2018-07-10T17:17:30.016Z,21.20
2018-07-10T17:23:34.009Z,21.30
2018-07-10T17:29:37.493Z,21.30
2018-07-10T17:35:41.066Z,21.20
2018-07-10T17:41:46.145Z,21.10
2018-07-10T17:54:01.720Z,21.00
2018-07-10T18:00:05.970Z,20.90
2018-07-10T18:06:09.418Z,20.90
2018-07-10T18:12:13.028Z,20.90
2018-07-10T18:18:16.470Z,20.80
2018-07-10T18:24:20.675Z,20.90
2018-07-10T18:30:24.143Z,20.90
2018-07-10T18:36:28.225Z,20.90
2018-07-10T18:42:32.502Z,20.80
2018-07-10T18:48:36.991Z,20.60
2018-07-10T18:54:47.805Z,20.50
2018-07-10T19:01:05.648Z,20.40
2018-07-10T19:07:09.189Z,20.40
2018-07-10T19:13:14.910Z,20.30
2018-07-10T19:19:18.617Z,20.20
2018-07-10T19:25:23.805Z,20.20
2018-07-10T19:31:31.668Z,20.20
2018-07-10T19:37:38.160Z,20.10
2018-07-10T19:43:41.899Z,20.00
2018-07-10T19:49:49.333Z,19.80
2018-07-10T19:55:52.920Z,19.70
2018-07-10T20:01:58.538Z,19.60
2018-07-10T20:08:09.636Z,19.40
2018-07-10T20:14:17.096Z,19.30
2018-07-10T20:20:24.728Z,19.10
2018-07-10T20:26:40.704Z,19.00
2018-07-10T20:33:18.516Z,18.90
2018-07-10T20:39:34.980Z,18.90
2018-07-10T20:45:45.876Z,18.90
2018-07-10T20:52:06.664Z,18.90
2018-07-10T20:58:15.777Z,18.70
2018-07-10T21:04:34.809Z,18.50
2018-07-10T21:10:43.792Z,18.40
2018-07-10T21:17:04.293Z,18.20
2018-07-10T21:23:19.511Z,18.10
2018-07-10T21:29:51.497Z,18.00
2018-07-10T21:36:04.091Z,17.90
2018-07-10T21:42:28.715Z,17.80
2018-07-10T21:51:02.278Z,17.70
2018-07-10T21:57:06.823Z,17.50
2018-07-10T22:03:11.406Z,17.40
2018-07-10T22:09:15.796Z,17.40
2018-07-10T22:15:20.084Z,17.30
2018-07-10T22:21:23.615Z,17.20
2018-07-10T22:27:26.960Z,17.10
2018-07-10T22:33:30.528Z,17.10
2018-07-10T22:39:33.969Z,17.00
2018-07-10T22:45:38.365Z,16.80
2018-07-10T22:51:41.831Z,16.80
2018-07-10T22:57:51.030Z,16.70
2018-07-10T23:03:55.107Z,16.60
2018-07-10T23:09:58.616Z,16.60
2018-07-10T23:16:02.252Z,16.50
2018-07-10T23:22:06.187Z,16.50
2018-07-10T23:28:10.376Z,16.40
2018-07-10T23:34:17.391Z,16.30
2018-07-10T23:40:22.337Z,16.20
2018-07-10T23:46:40.179Z,16.20
2018-07-10T23:52:57.161Z,16.10
2018-07-10T23:59:00.614Z,16.10
